createdAt,value
2022-09-06T00:01:12.716Z,100.00
2022-09-06T00:03:41.553Z,100.00
2022-09-06T00:06:13.031Z,100.00
2022-09-06T00:08:43.035Z,100.00
2022-09-06T00:11:11.171Z,100.00
2022-09-06T00:13:39.427Z,100.00
2022-09-06T00:16:14.344Z,100.00
2022-09-06T00:18:43.701Z,100.00
2022-09-06T00:21:21.445Z,100.00
2022-09-06T00:23:51.782Z,100.00
2022-09-06T00:26:21.615Z,100.00
2022-09-06T00:28:50.514Z,100.00
2022-09-06T00:31:24.602Z,100.00
2022-09-06T00:33:53.726Z,100.00
2022-09-06T00:36:22.928Z,100.00
2022-09-06T00:38:51.762Z,100.00
2022-09-06T00:41:20.050Z,100.00
2022-09-06T00:43:48.503Z,100.00
2022-09-06T00:46:23.817Z,100.00
2022-09-06T00:49:00.586Z,100.00
2022-09-06T00:51:30.791Z,100.00
2022-09-06T00:54:02.435Z,100.00
2022-09-06T00:56:32.241Z,100.00
2022-09-06T00:59:01.650Z,100.00
2022-09-06T01:01:30.081Z,100.00
2022-09-06T01:03:59.239Z,100.00
2022-09-06T01:06:39.017Z,100.00
2022-09-06T01:09:27.468Z,100.00
2022-09-06T01:12:27.626Z,100.00
2022-09-06T01:15:33.272Z,100.00
2022-09-06T01:18:37.323Z,100.00
2022-09-06T01:21:24.306Z,100.00
2022-09-06T01:24:04.558Z,100.00
2022-09-06T01:27:10.353Z,100.00
2022-09-06T01:29:54.813Z,100.00
2022-09-06T01:32:32.983Z,100.00
2022-09-06T01:35:32.794Z,100.00
2022-09-06T01:38:02.105Z,100.00
2022-09-06T01:40:30.491Z,100.00
2022-09-06T01:42:58.815Z,100.00
2022-09-06T01:45:39.507Z,100.00
2022-09-06T01:48:39.959Z,100.00
2022-09-06T01:51:32.735Z,100.00
2022-09-06T01:54:34.010Z,100.00
2022-09-06T01:57:32.702Z,100.00
2022-09-06T02:00:09.416Z,100.00
2022-09-06T02:03:09.518Z,100.00
2022-09-06T02:05:51.110Z,100.00
2022-09-06T02:08:42.635Z,100.00
2022-09-06T02:11:14.443Z,100.00
2022-09-06T02:13:52.942Z,100.00
2022-09-06T02:16:26.116Z,100.00
2022-09-06T02:19:03.649Z,100.00
2022-09-06T02:21:37.024Z,100.00
2022-09-06T02:24:10.354Z,100.00
2022-09-06T02:26:43.194Z,100.00
2022-09-06T02:29:11.657Z,100.00
2022-09-06T02:31:43.822Z,100.00
2022-09-06T02:34:16.262Z,100.00
2022-09-06T02:36:44.945Z,100.00
2022-09-06T02:39:13.922Z,100.00
2022-09-06T02:41:45.540Z,100.00
2022-09-06T02:44:14.261Z,100.00
2022-09-06T02:46:42.359Z,100.00
2022-09-06T02:49:10.714Z,100.00
2022-09-06T02:51:39.760Z,100.00
2022-09-06T02:54:09.063Z,100.00
2022-09-06T02:56:37.439Z,100.00
2022-09-06T02:59:06.936Z,100.00
2022-09-06T03:01:35.537Z,100.00
2022-09-06T03:04:04.028Z,100.00
2022-09-06T03:06:33.049Z,100.00
2022-09-06T03:09:01.485Z,100.00
2022-09-06T03:11:29.790Z,100.00
2022-09-06T03:13:58.361Z,100.00
2022-09-06T03:16:27.021Z,100.00
2022-09-06T03:18:55.459Z,100.00
2022-09-06T03:21:23.759Z,100.00
2022-09-06T03:23:52.682Z,100.00
2022-09-06T03:26:21.035Z,100.00
2022-09-06T03:28:50.448Z,100.00
2022-09-06T03:31:18.903Z,100.00
2022-09-06T03:33:47.223Z,100.00
2022-09-06T03:36:16.111Z,100.00
2022-09-06T03:38:45.518Z,100.00
2022-09-06T03:41:13.754Z,100.00
2022-09-06T03:43:41.969Z,100.00
2022-09-06T03:46:10.314Z,100.00
2022-09-06T03:48:38.663Z,100.00
2022-09-06T03:51:07.367Z,100.00
2022-09-06T03:53:36.684Z,100.00
2022-09-06T03:56:04.827Z,100.00
2022-09-06T03:58:32.975Z,100.00
2022-09-06T04:01:08.471Z,100.00
2022-09-06T04:03:38.314Z,100.00
2022-09-06T04:06:07.822Z,100.00
2022-09-06T04:08:37.439Z,100.00
2022-09-06T04:11:06.326Z,100.00
2022-09-06T04:13:35.115Z,100.00
2022-09-06T04:16:05.024Z,100.00
2022-09-06T04:18:33.663Z,100.00
2022-09-06T04:21:01.735Z,100.00
2022-09-06T04:23:30.564Z,100.00
2022-09-06T04:25:59.749Z,100.00
2022-09-06T04:28:28.958Z,100.00
2022-09-06T04:31:04.959Z,100.00
2022-09-06T04:33:35.495Z,100.00
2022-09-06T04:36:07.215Z,100.00
2022-09-06T04:38:40.367Z,100.00
2022-09-06T04:41:10.460Z,100.00
2022-09-06T04:43:39.055Z,100.00
2022-09-06T04:46:30.215Z,100.00
2022-09-06T04:48:59.213Z,100.00
2022-09-06T04:51:27.846Z,100.00
2022-09-06T04:53:56.224Z,99.80
2022-09-06T04:56:26.230Z,98.71
2022-09-06T04:58:55.645Z,99.61
2022-09-06T05:01:26.494Z,97.47
2022-09-06T05:03:56.882Z,96.65
2022-09-06T05:06:25.828Z,94.37
2022-09-06T05:08:53.918Z,93.02
2022-09-06T05:11:22.543Z,91.89
2022-09-06T05:13:50.847Z,92.42
2022-09-06T05:16:19.170Z,91.90
2022-09-06T05:18:47.694Z,91.24
2022-09-06T05:21:16.361Z,91.67
2022-09-06T05:23:44.804Z,90.38
2022-09-06T05:26:12.995Z,88.66
2022-09-06T05:28:41.091Z,88.23
2022-09-06T05:31:14.410Z,87.42
2022-09-06T05:33:42.708Z,87.48
2022-09-06T05:36:11.267Z,87.59
2022-09-06T05:38:40.080Z,86.41
2022-09-06T05:41:08.647Z,86.28
2022-09-06T05:43:36.898Z,83.71
2022-09-06T05:46:05.708Z,82.87
2022-09-06T05:48:37.071Z,83.66
2022-09-06T05:51:13.946Z,85.75
2022-09-06T05:53:46.026Z,87.93
2022-09-06T05:56:14.916Z,91.72
2022-09-06T05:58:43.735Z,93.88
2022-09-06T06:01:26.919Z,95.37
2022-09-06T06:03:59.211Z,97.75
2022-09-06T06:06:29.681Z,98.88
2022-09-06T06:08:58.363Z,99.82
2022-09-06T06:11:27.645Z,100.00
2022-09-06T06:13:56.062Z,100.00
2022-09-06T06:16:25.296Z,100.00
2022-09-06T06:18:53.524Z,100.00
2022-09-06T06:21:24.428Z,100.00
2022-09-06T06:23:55.642Z,100.00
2022-09-06T06:26:24.136Z,100.00
2022-09-06T06:28:53.578Z,100.00
2022-09-06T06:31:22.850Z,100.00
2022-09-06T06:33:51.308Z,100.00
2022-09-06T06:36:22.426Z,100.00
2022-09-06T06:38:53.346Z,100.00
2022-09-06T06:41:26.820Z,100.00
2022-09-06T06:43:57.154Z,100.00
2022-09-06T06:46:28.855Z,100.00
2022-09-06T06:48:58.016Z,100.00
2022-09-06T06:51:28.815Z,100.00
2022-09-06T06:53:57.107Z,100.00
2022-09-06T06:56:30.052Z,100.00
2022-09-06T06:59:00.942Z,100.00
2022-09-06T07:01:31.155Z,100.00
2022-09-06T07:03:59.529Z,100.00
2022-09-06T07:09:18.691Z,100.00
2022-09-06T07:11:50.133Z,98.79
2022-09-06T07:14:19.161Z,99.20
2022-09-06T07:16:48.045Z,99.74
2022-09-06T07:22:05.806Z,98.64
2022-09-06T07:24:34.605Z,98.65
2022-09-06T07:29:50.656Z,98.31
2022-09-06T07:32:18.746Z,95.61
2022-09-06T07:34:47.038Z,92.90
2022-09-06T07:37:15.828Z,93.14
2022-09-06T07:39:44.430Z,91.32
2022-09-06T07:42:12.492Z,88.94
2022-09-06T07:44:41.339Z,86.01
2022-09-06T07:55:35.016Z,79.27
2022-09-06T07:58:03.281Z,75.12
2022-09-06T08:00:32.241Z,74.03
2022-09-06T08:03:00.334Z,72.65
2022-09-06T08:11:07.729Z,68.67
2022-09-06T08:13:37.396Z,67.58
2022-09-06T08:16:08.391Z,68.84
2022-09-06T08:18:37.673Z,69.45
2022-09-06T08:21:14.347Z,68.47
2022-09-06T08:23:48.517Z,68.29
2022-09-06T08:26:18.155Z,67.86
2022-09-06T08:28:47.137Z,66.71
2022-09-06T08:31:17.470Z,67.47
2022-09-06T08:33:47.889Z,68.06
2022-09-06T08:36:16.337Z,66.12
2022-09-06T08:38:45.947Z,64.44
2022-09-06T08:41:41.574Z,64.02
2022-09-06T08:47:17.112Z,63.17
2022-09-06T08:49:47.819Z,64.36
2022-09-06T08:52:54.370Z,65.46
2022-09-06T08:55:26.147Z,66.54
2022-09-06T08:58:15.314Z,67.04
2022-09-06T09:00:52.565Z,66.86
2022-09-06T09:03:25.779Z,67.47
2022-09-06T09:05:54.450Z,66.99
2022-09-06T09:08:34.739Z,61.23
2022-09-06T09:11:18.338Z,61.82
2022-09-06T09:14:24.325Z,60.93
2022-09-06T09:16:56.638Z,57.95
2022-09-06T09:19:25.183Z,55.45
2022-09-06T09:21:53.327Z,55.68
2022-09-06T09:24:21.526Z,55.46
2022-09-06T09:26:52.619Z,54.73
2022-09-06T09:29:26.807Z,53.70
2022-09-06T09:31:57.195Z,51.26
2022-09-06T09:34:35.014Z,50.77
2022-09-06T09:40:35.075Z,50.11
2022-09-06T09:43:40.920Z,50.43
2022-09-06T09:46:33.230Z,51.19
2022-09-06T09:49:07.951Z,51.93
2022-09-06T09:51:42.558Z,52.22
2022-09-06T09:54:30.175Z,52.49
2022-09-06T09:56:59.300Z,51.68
2022-09-06T09:59:42.867Z,51.47
2022-09-06T10:02:30.565Z,49.30
2022-09-06T10:05:04.323Z,49.84
2022-09-06T10:07:34.270Z,51.24
2022-09-06T10:10:11.765Z,50.52
2022-09-06T10:12:43.115Z,50.80
2022-09-06T10:15:32.639Z,50.22
2022-09-06T10:18:01.401Z,48.58
2022-09-06T10:20:41.212Z,48.63
2022-09-06T10:23:16.411Z,48.28
2022-09-06T10:26:03.451Z,47.57
2022-09-06T10:28:42.456Z,46.99
2022-09-06T10:31:28.375Z,45.36
2022-09-06T10:34:09.158Z,43.54
2022-09-06T10:36:40.863Z,43.03
2022-09-06T10:39:32.252Z,44.05
2022-09-06T10:42:12.746Z,44.62
2022-09-06T10:45:03.537Z,45.31
2022-09-06T10:47:44.787Z,45.40
2022-09-06T10:50:14.692Z,46.62
2022-09-06T10:52:47.490Z,45.46
2022-09-06T10:55:18.967Z,44.33
2022-09-06T11:00:49.380Z,45.52
2022-09-06T11:06:28.146Z,47.30
2022-09-06T11:09:19.102Z,47.04
2022-09-06T11:12:18.992Z,45.67
2022-09-06T11:14:47.963Z,46.43
2022-09-06T11:17:41.232Z,46.41
2022-09-06T11:20:18.223Z,45.96
2022-09-06T11:22:50.531Z,46.31
2022-09-06T11:25:18.708Z,47.82
2022-09-06T11:27:57.768Z,47.81
2022-09-06T11:30:30.004Z,48.85
2022-09-06T11:33:12.117Z,48.49
2022-09-06T11:35:41.544Z,48.62
2022-09-06T11:38:16.399Z,49.25
2022-09-06T11:41:07.184Z,50.06
2022-09-06T11:43:42.949Z,48.78
2022-09-06T11:46:33.067Z,47.46
2022-09-06T11:49:05.046Z,45.71
2022-09-06T11:51:40.339Z,45.26
2022-09-06T11:54:15.151Z,45.97
2022-09-06T11:56:53.262Z,45.08
2022-09-06T11:59:34.478Z,44.82
2022-09-06T12:02:27.014Z,44.80
2022-09-06T12:05:00.507Z,45.04
2022-09-06T12:07:30.938Z,45.46
2022-09-06T12:10:31.242Z,45.87
2022-09-06T12:12:59.646Z,45.46
2022-09-06T12:15:31.248Z,45.38
2022-09-06T12:18:00.582Z,44.53
2022-09-06T12:21:04.656Z,44.31
2022-09-06T12:23:35.415Z,44.16
2022-09-06T12:26:08.343Z,45.18
2022-09-06T12:28:52.868Z,45.68
2022-09-06T12:31:39.943Z,47.22
2022-09-06T12:34:19.678Z,47.38
2022-09-06T12:36:55.582Z,45.15
2022-09-06T12:39:24.719Z,44.06
2022-09-06T12:42:00.580Z,42.20
2022-09-06T12:44:35.802Z,41.82
2022-09-06T12:47:11.631Z,41.81
2022-09-06T12:49:40.088Z,40.61
2022-09-06T12:52:19.651Z,40.19
2022-09-06T12:54:50.333Z,38.88
2022-09-06T12:57:24.295Z,39.29
2022-09-06T12:59:55.640Z,38.10
2022-09-06T13:03:08.938Z,38.00
2022-09-06T13:05:42.771Z,38.30
2022-09-06T13:08:23.120Z,38.87
2022-09-06T13:10:51.681Z,38.67
2022-09-06T13:13:24.883Z,37.86
2022-09-06T13:15:54.023Z,37.15
2022-09-06T13:18:35.674Z,36.42
2022-09-06T13:21:08.674Z,35.92
2022-09-06T13:23:44.216Z,37.02
2022-09-06T13:26:12.503Z,37.08
2022-09-06T13:28:40.976Z,35.66
2022-09-06T13:31:29.628Z,35.49
2022-09-06T13:34:00.001Z,35.83
2022-09-06T13:36:32.777Z,35.89
2022-09-06T13:39:03.861Z,36.44
2022-09-06T13:41:39.170Z,36.70
2022-09-06T13:44:16.660Z,35.87
2022-09-06T13:46:45.073Z,36.33
2022-09-06T13:49:13.887Z,37.43
2022-09-06T13:51:43.563Z,36.16
2022-09-06T13:54:14.427Z,35.87
2022-09-06T13:56:45.096Z,36.22
2022-09-06T13:59:13.504Z,37.07
2022-09-06T14:01:46.002Z,37.70
2022-09-06T14:04:21.707Z,38.19
2022-09-06T14:06:49.859Z,36.79
2022-09-06T14:09:18.096Z,36.54
2022-09-06T14:11:48.344Z,36.15
2022-09-06T14:14:18.099Z,35.93
2022-09-06T14:16:47.811Z,35.42
2022-09-06T14:19:17.812Z,35.64
2022-09-06T14:21:46.891Z,36.26
2022-09-06T14:24:15.440Z,36.77
2022-09-06T14:26:43.954Z,36.56
2022-09-06T14:29:12.216Z,36.64
2022-09-06T14:31:41.275Z,35.99
2022-09-06T14:34:09.615Z,35.30
2022-09-06T14:36:38.178Z,35.57
2022-09-06T14:39:07.040Z,35.58
2022-09-06T14:41:36.151Z,34.70
2022-09-06T14:44:04.921Z,35.10
2022-09-06T14:46:33.189Z,35.62
2022-09-06T14:49:06.489Z,35.53
2022-09-06T14:51:35.882Z,34.54
2022-09-06T14:54:11.328Z,34.94
2022-09-06T14:56:42.138Z,35.46
2022-09-06T14:59:11.352Z,35.79
2022-09-06T15:01:41.896Z,36.22
2022-09-06T15:04:12.122Z,37.04
2022-09-06T15:06:44.477Z,37.19
2022-09-06T15:09:13.433Z,37.57
2022-09-06T15:11:46.244Z,38.29
2022-09-06T15:14:26.719Z,39.60
2022-09-06T15:16:58.272Z,39.12
2022-09-06T15:19:29.071Z,39.17
2022-09-06T15:21:57.627Z,40.36
2022-09-06T15:24:26.351Z,40.36
2022-09-06T15:26:54.832Z,40.53
2022-09-06T15:29:22.993Z,41.04
2022-09-06T15:31:52.171Z,42.06
2022-09-06T15:34:22.070Z,42.72
2022-09-06T15:36:51.630Z,43.14
2022-09-06T15:39:20.110Z,42.62
2022-09-06T15:41:50.475Z,42.95
2022-09-06T15:44:20.801Z,42.90
2022-09-06T15:46:54.666Z,42.85
2022-09-06T15:49:34.797Z,43.14
2022-09-06T15:52:06.149Z,43.93
2022-09-06T15:54:52.798Z,44.34
2022-09-06T15:57:21.013Z,44.90
2022-09-06T15:59:49.593Z,45.02
2022-09-06T16:02:18.137Z,45.35
2022-09-06T16:04:46.635Z,45.76
2022-09-06T16:07:14.903Z,46.92
2022-09-06T16:09:43.451Z,46.56
2022-09-06T16:12:11.947Z,46.65
2022-09-06T16:14:40.249Z,46.76
2022-09-06T16:17:08.367Z,47.01
2022-09-06T16:19:36.554Z,47.63
2022-09-06T16:22:05.173Z,48.19
2022-09-06T16:24:33.596Z,48.78
2022-09-06T16:27:02.937Z,50.30
2022-09-06T16:29:32.587Z,53.10
2022-09-06T16:32:00.845Z,54.72
2022-09-06T16:34:29.483Z,55.16
2022-09-06T16:36:58.046Z,56.74
2022-09-06T16:39:26.393Z,58.04
2022-09-06T16:41:54.794Z,56.80
2022-09-06T16:44:23.043Z,58.94
2022-09-06T16:46:53.082Z,60.71
2022-09-06T16:49:21.176Z,61.93
2022-09-06T16:51:50.713Z,63.19
2022-09-06T16:54:19.737Z,63.38
2022-09-06T16:56:48.318Z,63.57
2022-09-06T16:59:17.492Z,64.16
2022-09-06T17:01:46.337Z,64.91
2022-09-06T17:04:15.508Z,65.90
2022-09-06T17:06:47.080Z,66.40
2022-09-06T17:09:21.179Z,66.41
2022-09-06T17:11:50.524Z,67.03
2022-09-06T17:14:19.084Z,66.71
2022-09-06T17:17:07.256Z,67.79
2022-09-06T17:19:38.090Z,68.56
2022-09-06T17:22:06.470Z,68.68
2022-09-06T17:24:34.719Z,68.89
2022-09-06T17:27:04.216Z,69.24
2022-09-06T17:29:32.958Z,70.38
2022-09-06T17:32:03.922Z,70.18
2022-09-06T17:34:32.293Z,71.07
2022-09-06T17:37:00.904Z,70.98
2022-09-06T17:39:29.143Z,72.38
2022-09-06T17:41:58.257Z,71.58
2022-09-06T17:44:26.987Z,72.18
2022-09-06T17:47:12.615Z,72.28
2022-09-06T17:49:42.879Z,72.82
2022-09-06T17:52:12.070Z,72.97
2022-09-06T17:54:40.708Z,73.92
2022-09-06T17:57:09.537Z,74.23
2022-09-06T17:59:38.639Z,75.14
2022-09-06T18:02:06.772Z,74.99
2022-09-06T18:04:35.356Z,75.79
2022-09-06T18:07:03.551Z,76.05
2022-09-06T18:09:31.994Z,76.31
2022-09-06T18:12:00.417Z,76.26
2022-09-06T18:14:28.846Z,76.44
2022-09-06T18:16:57.657Z,76.53
2022-09-06T18:19:27.707Z,76.27
2022-09-06T18:21:57.409Z,76.98
2022-09-06T18:24:25.890Z,76.10
2022-09-06T18:26:54.457Z,75.94
2022-09-06T18:29:23.068Z,75.54
2022-09-06T18:31:54.303Z,75.46
2022-09-06T18:34:22.631Z,76.38
2022-09-06T18:36:51.405Z,77.64
2022-09-06T18:39:20.615Z,78.47
2022-09-06T18:42:00.869Z,78.60
2022-09-06T18:44:34.283Z,78.28
2022-09-06T18:47:05.774Z,78.83
2022-09-06T18:49:35.007Z,79.61
2022-09-06T18:52:05.464Z,78.96
2022-09-06T18:54:33.759Z,79.16
2022-09-06T18:57:02.021Z,79.25
2022-09-06T18:59:30.347Z,78.79
2022-09-06T19:01:58.891Z,79.86
2022-09-06T19:04:27.314Z,82.56
2022-09-06T19:06:55.692Z,83.93
2022-09-06T19:09:23.985Z,83.46
2022-09-06T19:11:53.422Z,83.44
2022-09-06T19:14:22.205Z,83.63
2022-09-06T19:16:51.868Z,82.87
2022-09-06T19:19:21.934Z,82.25
2022-09-06T19:21:50.864Z,81.98
2022-09-06T19:24:22.844Z,82.16
2022-09-06T19:26:53.042Z,82.52
2022-09-06T19:29:21.542Z,81.68
2022-09-06T19:31:50.106Z,81.80
2022-09-06T19:34:18.764Z,81.72
2022-09-06T19:36:47.209Z,81.03
2022-09-06T19:39:16.731Z,80.39
2022-09-06T19:41:47.684Z,80.33
2022-09-06T19:44:20.397Z,79.86
2022-09-06T19:46:49.212Z,80.24
2022-09-06T19:49:23.444Z,80.31
2022-09-06T19:51:53.178Z,80.50
2022-09-06T19:54:21.631Z,80.51
2022-09-06T19:56:49.750Z,80.17
2022-09-06T19:59:18.160Z,81.15
2022-09-06T20:01:48.639Z,82.76
2022-09-06T20:07:15.809Z,83.34
2022-09-06T20:09:44.127Z,83.25
2022-09-06T20:12:12.303Z,82.95
2022-09-06T20:14:40.730Z,83.14
2022-09-06T20:17:32.187Z,83.43
2022-09-06T20:19:57.262Z,83.30
2022-09-06T20:22:26.238Z,83.15
2022-09-06T20:24:54.944Z,83.42
2022-09-06T20:27:23.759Z,82.91
2022-09-06T20:29:52.147Z,84.35
2022-09-06T20:32:20.539Z,85.10
2022-09-06T20:34:48.824Z,85.94
2022-09-06T20:37:16.990Z,85.73
2022-09-06T20:39:45.303Z,85.75
2022-09-06T20:42:13.839Z,85.58
2022-09-06T20:44:42.307Z,85.87
2022-09-06T20:47:10.672Z,85.60
2022-09-06T20:49:38.786Z,85.05
2022-09-06T20:52:06.994Z,84.96
2022-09-06T20:54:36.978Z,85.46
2022-09-06T20:57:05.195Z,84.99
2022-09-06T20:59:33.460Z,85.89
2022-09-06T21:02:01.797Z,85.75
2022-09-06T21:04:30.831Z,86.26
2022-09-06T21:06:59.226Z,87.87
2022-09-06T21:09:28.097Z,87.43
2022-09-06T21:11:58.638Z,87.53
2022-09-06T21:14:26.750Z,87.45
2022-09-06T21:16:54.795Z,87.72
2022-09-06T21:19:23.732Z,87.56
2022-09-06T21:21:52.083Z,87.21
2022-09-06T21:24:21.943Z,87.63
2022-09-06T21:26:50.210Z,87.92
2022-09-06T21:29:18.430Z,88.78
2022-09-06T21:31:46.605Z,88.98
2022-09-06T21:34:17.105Z,89.94
2022-09-06T21:36:46.097Z,88.74
2022-09-06T21:39:15.031Z,88.69
2022-09-06T21:41:43.874Z,89.80
2022-09-06T21:44:12.908Z,90.69
2022-09-06T21:46:41.746Z,89.90
2022-09-06T21:49:12.228Z,90.11
2022-09-06T21:51:40.887Z,89.87
2022-09-06T21:54:09.457Z,89.27
2022-09-06T21:56:38.920Z,89.32
2022-09-06T21:59:07.950Z,88.87
2022-09-06T22:01:38.292Z,88.91
2022-09-06T22:04:07.051Z,88.93
2022-09-06T22:06:36.361Z,88.64
2022-09-06T22:09:11.062Z,88.39
2022-09-06T22:11:41.757Z,88.54
2022-09-06T22:14:12.551Z,88.84
2022-09-06T22:16:41.780Z,88.13
2022-09-06T22:19:11.600Z,87.88
2022-09-06T22:21:40.204Z,87.71
2022-09-06T22:24:11.347Z,87.25
2022-09-06T22:26:41.083Z,86.82
2022-09-06T22:29:13.769Z,86.94
2022-09-06T22:31:42.040Z,87.07
2022-09-06T22:34:10.806Z,87.73
2022-09-06T22:36:39.258Z,87.39
2022-09-06T22:39:07.391Z,87.16
2022-09-06T22:41:36.690Z,87.06
2022-09-06T22:44:05.886Z,87.14
2022-09-06T22:46:34.353Z,87.50
2022-09-06T22:49:04.258Z,87.24
2022-09-06T22:51:32.949Z,87.60
2022-09-06T22:54:01.521Z,87.60
2022-09-06T22:56:29.571Z,87.54
2022-09-06T22:58:59.831Z,88.27
2022-09-06T23:01:28.360Z,87.95
2022-09-06T23:03:56.646Z,87.74
2022-09-06T23:06:25.458Z,88.42
2022-09-06T23:08:53.863Z,88.74
2022-09-06T23:11:21.970Z,89.35
2022-09-06T23:13:55.511Z,89.90
2022-09-06T23:16:24.879Z,90.38
2022-09-06T23:18:54.761Z,89.38
2022-09-06T23:21:25.689Z,89.07
2022-09-06T23:23:56.105Z,89.49
2022-09-06T23:26:28.965Z,89.28
2022-09-06T23:28:57.578Z,89.38
2022-09-06T23:31:28.192Z,89.46
2022-09-06T23:33:58.418Z,89.98
2022-09-06T23:36:27.411Z,90.09
2022-09-06T23:38:56.353Z,89.84
2022-09-06T23:41:24.943Z,90.21
2022-09-06T23:43:53.135Z,90.78
2022-09-06T23:46:22.106Z,90.72
2022-09-06T23:48:50.725Z,90.24
2022-09-06T23:51:19.041Z,90.50
2022-09-06T23:53:47.267Z,91.93
2022-09-06T23:56:16.161Z,92.66
2022-09-06T23:58:44.471Z,92.88
